sensor_id;sensor_type;location;lat;lon;timestamp;pressure;altitude;pressure_sealevel;temperature;humidity
75428;BME280;64008;55.612;37.698;2022-12-18T00:00:55;98982.56;;;-4.56;93.68
75428;BME280;64008;55.612;37.698;2022-12-18T00:03:21;98963.91;;;-4.59;93.48
75428;BME280;64008;55.612;37.698;2022-12-18T00:05:48;98958.16;;;-4.63;93.85
75428;BME280;64008;55.612;37.698;2022-12-18T00:08:14;98956.28;;;-4.67;93.15
75428;BME280;64008;55.612;37.698;2022-12-18T00:10:40;98956.00;;;-4.66;92.43
75428;BME280;64008;55.612;37.698;2022-12-18T00:13:05;98945.59;;;-4.69;92.97
75428;BME280;64008;55.612;37.698;2022-12-18T00:15:34;98953.81;;;-4.69;93.26
75428;BME280;64008;55.612;37.698;2022-12-18T00:17:59;98944.81;;;-4.74;93.04
75428;BME280;64008;55.612;37.698;2022-12-18T00:20:25;98948.38;;;-4.74;93.15
75428;BME280;64008;55.612;37.698;2022-12-18T00:22:52;98946.47;;;-4.73;92.89
75428;BME280;64008;55.612;37.698;2022-12-18T00:25:17;98941.78;;;-4.73;93.83
75428;BME280;64008;55.612;37.698;2022-12-18T00:27:43;98934.38;;;-4.72;93.05
75428;BME280;64008;55.612;37.698;2022-12-18T00:30:09;98940.44;;;-4.75;94.02
75428;BME280;64008;55.612;37.698;2022-12-18T00:32:35;98920.47;;;-4.81;92.88
75428;BME280;64008;55.612;37.698;2022-12-18T00:35:00;98919.38;;;-4.85;92.86
75428;BME280;64008;55.612;37.698;2022-12-18T00:37:26;98921.84;;;-4.83;93.93
75428;BME280;64008;55.612;37.698;2022-12-18T00:39:51;98912.22;;;-4.81;93.72
75428;BME280;64008;55.612;37.698;2022-12-18T00:42:17;98901.25;;;-4.81;93.50
75428;BME280;64008;55.612;37.698;2022-12-18T00:45:01;98903.41;;;-4.78;94.13
75428;BME280;64008;55.612;37.698;2022-12-18T00:47:27;98892.16;;;-4.76;93.98
75428;BME280;64008;55.612;37.698;2022-12-18T00:49:52;98887.50;;;-4.76;93.61
75428;BME280;64008;55.612;37.698;2022-12-18T00:52:18;98885.03;;;-4.77;93.43
75428;BME280;64008;55.612;37.698;2022-12-18T00:54:43;98882.59;;;-4.79;93.09
75428;BME280;64008;55.612;37.698;2022-12-18T00:57:09;98870.00;;;-4.80;93.76
75428;BME280;64008;55.612;37.698;2022-12-18T00:59:34;98862.88;;;-4.81;92.78
75428;BME280;64008;55.612;37.698;2022-12-18T01:02:00;98874.91;;;-4.77;93.44
75428;BME280;64008;55.612;37.698;2022-12-18T01:04:25;98877.09;;;-4.74;94.16
75428;BME280;64008;55.612;37.698;2022-12-18T01:06:51;98858.72;;;-4.73;93.00
75428;BME280;64008;55.612;37.698;2022-12-18T01:09:16;98852.41;;;-4.74;93.47
75428;BME280;64008;55.612;37.698;2022-12-18T01:11:42;98862.56;;;-4.74;92.41
75428;BME280;64008;55.612;37.698;2022-12-18T01:14:07;98865.03;;;-4.78;93.16
75428;BME280;64008;55.612;37.698;2022-12-18T01:16:33;98857.13;;;-4.79;92.33
75428;BME280;64008;55.612;37.698;2022-12-18T01:18:58;98850.81;;;-4.80;93.40
75428;BME280;64008;55.612;37.698;2022-12-18T01:21:24;98857.63;;;-4.77;93.02
75428;BME280;64008;55.612;37.698;2022-12-18T01:23:56;98853.84;;;-4.81;91.75
75428;BME280;64008;55.612;37.698;2022-12-18T01:26:23;98842.03;;;-4.82;92.97
75428;BME280;64008;55.612;37.698;2022-12-18T01:28:49;98846.72;;;-4.82;92.21
75428;BME280;64008;55.612;37.698;2022-12-18T01:31:21;98841.50;;;-4.84;92.36
75428;BME280;64008;55.612;37.698;2022-12-18T01:33:47;98845.94;;;-4.88;92.45
75428;BME280;64008;55.612;37.698;2022-12-18T01:36:24;98849.50;;;-4.87;91.92
75428;BME280;64008;55.612;37.698;2022-12-18T01:38:50;98853.63;;;-4.90;92.00
75428;BME280;64008;55.612;37.698;2022-12-18T01:41:19;98828.13;;;-4.90;92.53
75428;BME280;64008;55.612;37.698;2022-12-18T01:46:18;98826.25;;;-4.95;92.22
75428;BME280;64008;55.612;37.698;2022-12-18T01:48:47;98832.00;;;-4.96;92.68
75428;BME280;64008;55.612;37.698;2022-12-18T01:51:13;98835.59;;;-5.01;92.00
75428;BME280;64008;55.612;37.698;2022-12-18T01:53:40;98831.53;;;-5.04;92.21
75428;BME280;64008;55.612;37.698;2022-12-18T01:56:07;98838.38;;;-5.06;91.86
75428;BME280;64008;55.612;37.698;2022-12-18T01:59:02;98830.44;;;-5.08;92.21
75428;BME280;64008;55.612;37.698;2022-12-18T02:01:29;98823.03;;;-5.07;92.24
75428;BME280;64008;55.612;37.698;2022-12-18T02:03:55;98826.06;;;-5.09;92.19
75428;BME280;64008;55.612;37.698;2022-12-18T02:06:29;98817.00;;;-5.09;92.88
75428;BME280;64008;55.612;37.698;2022-12-18T02:12:00;98820.06;;;-5.16;92.54
75428;BME280;64008;55.612;37.698;2022-12-18T02:17:21;98831.63;;;-5.19;92.84
75428;BME280;64008;55.612;37.698;2022-12-18T02:27:47;98811.06;;;-5.21;92.63
75428;BME280;64008;55.612;37.698;2022-12-18T02:30:15;98817.13;;;-5.24;92.63
75428;BME280;64008;55.612;37.698;2022-12-18T02:32:44;98825.34;;;-5.24;93.10
75428;BME280;64008;55.612;37.698;2022-12-18T02:35:15;98816.28;;;-5.25;93.53
75428;BME280;64008;55.612;37.698;2022-12-18T02:37:43;98816.06;;;-5.28;92.64
75428;BME280;64008;55.612;37.698;2022-12-18T02:40:11;98822.91;;;-5.31;92.79
75428;BME280;64008;55.612;37.698;2022-12-18T02:42:37;98819.06;;;-5.30;92.69
75428;BME280;64008;55.612;37.698;2022-12-18T02:45:03;98825.91;;;-5.27;93.75
75428;BME280;64008;55.612;37.698;2022-12-18T02:47:31;98822.91;;;-5.31;92.44
75428;BME280;64008;55.612;37.698;2022-12-18T02:50:02;98836.59;;;-5.31;92.37
75428;BME280;64008;55.612;37.698;2022-12-18T02:55:28;98828.13;;;-5.29;93.39
75428;BME280;64008;55.612;37.698;2022-12-18T03:01:19;98811.94;;;-5.31;93.72
75428;BME280;64008;55.612;37.698;2022-12-18T03:03:59;98808.44;;;-5.36;92.80
75428;BME280;64008;55.612;37.698;2022-12-18T03:06:32;98813.66;;;-5.40;92.57
75428;BME280;64008;55.612;37.698;2022-12-18T03:09:11;98818.56;;;-5.42;92.36
75428;BME280;64008;55.612;37.698;2022-12-18T03:11:42;98810.38;;;-5.42;93.07
75428;BME280;64008;55.612;37.698;2022-12-18T03:14:30;98812.28;;;-5.43;93.13
75428;BME280;64008;55.612;37.698;2022-12-18T03:17:01;98825.69;;;-5.41;92.99
75428;BME280;64008;55.612;37.698;2022-12-18T03:19:29;98838.03;;;-5.38;93.74
75428;BME280;64008;55.612;37.698;2022-12-18T03:21:58;98833.63;;;-5.40;93.52
75428;BME280;64008;55.612;37.698;2022-12-18T03:24:27;98826.25;;;-5.39;93.25
75428;BME280;64008;55.612;37.698;2022-12-18T03:26:58;98827.88;;;-5.38;93.70
75428;BME280;64008;55.612;37.698;2022-12-18T03:29:35;98831.44;;;-5.37;94.36
75428;BME280;64008;55.612;37.698;2022-12-18T03:32:08;98810.91;;;-5.40;93.80
75428;BME280;64008;55.612;37.698;2022-12-18T03:34:39;98819.72;;;-5.43;93.74
75428;BME280;64008;55.612;37.698;2022-12-18T03:37:06;98826.56;;;-5.46;93.49
75428;BME280;64008;55.612;37.698;2022-12-18T03:39:32;98827.09;;;-5.49;93.36
75428;BME280;64008;55.612;37.698;2022-12-18T03:50:04;98822.72;;;-5.50;93.52
75428;BME280;64008;55.612;37.698;2022-12-18T03:52:38;98827.38;;;-5.50;93.41
75428;BME280;64008;55.612;37.698;2022-12-18T03:55:08;98832.88;;;-5.50;93.48
75428;BME280;64008;55.612;37.698;2022-12-18T03:57:35;98831.81;;;-5.54;93.51
75428;BME280;64008;55.612;37.698;2022-12-18T04:00:07;98829.06;;;-5.54;93.39
75428;BME280;64008;55.612;37.698;2022-12-18T04:02:34;98837.25;;;-5.44;94.67
75428;BME280;64008;55.612;37.698;2022-12-18T04:05:04;98830.34;;;-5.36;95.10
75428;BME280;64008;55.612;37.698;2022-12-18T04:07:33;98825.09;;;-5.28;94.81
75428;BME280;64008;55.612;37.698;2022-12-18T04:10:01;98832.50;;;-5.28;94.54
75428;BME280;64008;55.612;37.698;2022-12-18T04:12:29;98845.38;;;-5.34;93.90
75428;BME280;64008;55.612;37.698;2022-12-18T04:14:55;98843.50;;;-5.38;93.29
75428;BME280;64008;55.612;37.698;2022-12-18T04:17:20;98862.41;;;-5.42;93.38
75428;BME280;64008;55.612;37.698;2022-12-18T04:19:46;98873.94;;;-5.45;93.04
75428;BME280;64008;55.612;37.698;2022-12-18T04:22:12;98873.66;;;-5.44;92.84
75428;BME280;64008;55.612;37.698;2022-12-18T04:24:38;98867.66;;;-5.46;92.86
75428;BME280;64008;55.612;37.698;2022-12-18T04:27:04;98869.84;;;-5.48;92.82
75428;BME280;64008;55.612;37.698;2022-12-18T04:29:30;98868.47;;;-5.50;92.49
75428;BME280;64008;55.612;37.698;2022-12-18T04:31:56;98888.19;;;-5.48;93.42
75428;BME280;64008;55.612;37.698;2022-12-18T04:34:21;98901.88;;;-5.48;93.71
75428;BME280;64008;55.612;37.698;2022-12-18T04:36:47;98906.00;;;-5.51;93.26
75428;BME280;64008;55.612;37.698;2022-12-18T04:39:13;98904.66;;;-5.53;93.35
75428;BME280;64008;55.612;37.698;2022-12-18T04:41:39;98903.78;;;-5.49;93.62
75428;BME280;64008;55.612;37.698;2022-12-18T04:44:04;98900.50;;;-5.51;93.15
75428;BME280;64008;55.612;37.698;2022-12-18T04:46:30;98911.47;;;-5.51;92.79
75428;BME280;64008;55.612;37.698;2022-12-18T04:48:55;98926.56;;;-5.53;93.02
75428;BME280;64008;55.612;37.698;2022-12-18T04:51:21;98937.78;;;-5.55;92.56
75428;BME280;64008;55.612;37.698;2022-12-18T04:53:46;98938.06;;;-5.56;92.61
75428;BME280;64008;55.612;37.698;2022-12-18T04:56:14;98943.00;;;-5.58;92.93
75428;BME280;64008;55.612;37.698;2022-12-18T04:58:43;98941.34;;;-5.54;92.84
75428;BME280;64008;55.612;37.698;2022-12-18T05:01:09;98946.03;;;-5.60;92.65
75428;BME280;64008;55.612;37.698;2022-12-18T05:03:36;98941.06;;;-5.58;93.28
75428;BME280;64008;55.612;37.698;2022-12-18T05:06:03;98934.50;;;-5.57;92.82
75428;BME280;64008;55.612;37.698;2022-12-18T05:08:29;98933.97;;;-5.59;93.04
75428;BME280;64008;55.612;37.698;2022-12-18T05:11:06;98942.47;;;-5.65;92.32
75428;BME280;64008;55.612;37.698;2022-12-18T05:13:33;98930.72;;;-5.71;91.99
75428;BME280;64008;55.612;37.698;2022-12-18T05:15:59;98933.72;;;-5.72;91.67
75428;BME280;64008;55.612;37.698;2022-12-18T05:18:24;98931.25;;;-5.74;91.95
75428;BME280;64008;55.612;37.698;2022-12-18T05:20:51;98933.75;;;-5.78;91.86
75428;BME280;64008;55.612;37.698;2022-12-18T05:23:18;98929.91;;;-5.76;92.99
75428;BME280;64008;55.612;37.698;2022-12-18T05:25:50;98942.50;;;-5.75;92.99
75428;BME280;64008;55.612;37.698;2022-12-18T05:28:16;98963.03;;;-5.78;92.95
75428;BME280;64008;55.612;37.698;2022-12-18T05:30:41;98967.69;;;-5.79;92.59
75428;BME280;64008;55.612;37.698;2022-12-18T05:33:08;98976.16;;;-5.80;93.05
75428;BME280;64008;55.612;37.698;2022-12-18T05:35:33;98986.28;;;-5.81;93.12
75428;BME280;64008;55.612;37.698;2022-12-18T05:37:59;98984.94;;;-5.78;92.54
75428;BME280;64008;55.612;37.698;2022-12-18T05:40:24;98987.41;;;-5.76;92.84
75428;BME280;64008;55.612;37.698;2022-12-18T05:42:50;98991.78;;;-5.75;92.94
75428;BME280;64008;55.612;37.698;2022-12-18T05:45:15;98990.41;;;-5.78;92.69
75428;BME280;64008;55.612;37.698;2022-12-18T05:47:41;99008.75;;;-5.79;92.55
75428;BME280;64008;55.612;37.698;2022-12-18T05:50:07;99006.00;;;-5.79;92.73
75428;BME280;64008;55.612;37.698;2022-12-18T05:52:33;99000.25;;;-5.77;92.72
75428;BME280;64008;55.612;37.698;2022-12-18T05:54:58;99006.00;;;-5.79;93.05
75428;BME280;64008;55.612;37.698;2022-12-18T05:57:24;98999.44;;;-5.78;92.62
75428;BME280;64008;55.612;37.698;2022-12-18T05:59:49;99018.06;;;-5.80;92.95
75428;BME280;64008;55.612;37.698;2022-12-18T06:02:15;99019.41;;;-5.82;92.01
75428;BME280;64008;55.612;37.698;2022-12-18T06:04:40;99021.91;;;-5.86;92.27
75428;BME280;64008;55.612;37.698;2022-12-18T06:07:06;99021.34;;;-5.83;92.95
75428;BME280;64008;55.612;37.698;2022-12-18T06:09:32;99031.19;;;-5.82;92.23
75428;BME280;64008;55.612;37.698;2022-12-18T06:11:57;99036.41;;;-5.85;92.09
75428;BME280;64008;55.612;37.698;2022-12-18T06:14:23;99038.88;;;-5.84;92.68
75428;BME280;64008;55.612;37.698;2022-12-18T06:16:50;99041.59;;;-5.79;93.02
75428;BME280;64008;55.612;37.698;2022-12-18T06:19:17;99044.91;;;-5.76;93.48
75428;BME280;64008;55.612;37.698;2022-12-18T06:21:43;99040.50;;;-5.72;93.33
75428;BME280;64008;55.612;37.698;2022-12-18T06:24:09;99046.78;;;-5.72;93.08
75428;BME280;64008;55.612;37.698;2022-12-18T06:26:37;99042.41;;;-5.73;92.42
75428;BME280;64008;55.612;37.698;2022-12-18T06:29:03;99048.72;;;-5.72;91.98
75428;BME280;64008;55.612;37.698;2022-12-18T06:31:28;99066.22;;;-5.73;92.58
75428;BME280;64008;55.612;37.698;2022-12-18T06:33:54;99073.34;;;-5.72;92.07
75428;BME280;64008;55.612;37.698;2022-12-18T06:36:19;99055.03;;;-5.67;92.52
75428;BME280;64008;55.612;37.698;2022-12-18T06:38:46;99075.28;;;-5.53;93.50
75428;BME280;64008;55.612;37.698;2022-12-18T06:41:16;99080.19;;;-5.55;92.41
75428;BME280;64008;55.612;37.698;2022-12-18T06:43:42;99086.50;;;-5.54;92.05
75428;BME280;64008;55.612;37.698;2022-12-18T06:46:08;99098.28;;;-5.59;91.79
75428;BME280;64008;55.612;37.698;2022-12-18T06:48:34;99111.97;;;-5.59;91.57
75428;BME280;64008;55.612;37.698;2022-12-18T06:51:00;99127.56;;;-5.54;91.90
75428;BME280;64008;55.612;37.698;2022-12-18T06:53:26;99128.13;;;-5.52;91.88
75428;BME280;64008;55.612;37.698;2022-12-18T06:55:52;99132.22;;;-5.50;91.42
75428;BME280;64008;55.612;37.698;2022-12-18T06:58:18;99136.59;;;-5.49;91.51
75428;BME280;64008;55.612;37.698;2022-12-18T07:00:44;99143.19;;;-5.45;91.88
75428;BME280;64008;55.612;37.698;2022-12-18T07:03:10;99133.06;;;-5.44;91.59
75428;BME280;64008;55.612;37.698;2022-12-18T07:05:39;99131.13;;;-5.44;90.70
75428;BME280;64008;55.612;37.698;2022-12-18T07:08:05;99133.03;;;-5.39;91.38
75428;BME280;64008;55.612;37.698;2022-12-18T07:10:30;99129.22;;;-5.38;91.13
75428;BME280;64008;55.612;37.698;2022-12-18T07:12:56;99138.22;;;-5.43;90.46
75428;BME280;64008;55.612;37.698;2022-12-18T07:15:21;99146.47;;;-5.37;90.91
75428;BME280;64008;55.612;37.698;2022-12-18T07:17:47;99147.28;;;-5.32;91.33
75428;BME280;64008;55.612;37.698;2022-12-18T07:20:12;99154.97;;;-5.29;90.44
75428;BME280;64008;55.612;37.698;2022-12-18T07:22:38;99158.25;;;-5.32;90.15
75428;BME280;64008;55.612;37.698;2022-12-18T07:25:04;99170.31;;;-5.28;90.30
75428;BME280;64008;55.612;37.698;2022-12-18T07:27:29;99172.75;;;-5.31;88.93
75428;BME280;64008;55.612;37.698;2022-12-18T07:29:55;99172.47;;;-5.25;89.22
75428;BME280;64008;55.612;37.698;2022-12-18T07:32:20;99184.81;;;-5.17;89.08
75428;BME280;64008;55.612;37.698;2022-12-18T07:34:46;99186.44;;;-5.16;87.73
75428;BME280;64008;55.612;37.698;2022-12-18T07:37:11;99186.44;;;-5.16;88.13
75428;BME280;64008;55.612;37.698;2022-12-18T07:39:37;99181.00;;;-5.11;87.63
75428;BME280;64008;55.612;37.698;2022-12-18T07:42:03;99189.47;;;-5.08;88.22
75428;BME280;64008;55.612;37.698;2022-12-18T07:44:47;99187.84;;;-5.14;86.71
75428;BME280;64008;55.612;37.698;2022-12-18T07:47:12;99191.94;;;-5.16;86.59
75428;BME280;64008;55.612;37.698;2022-12-18T07:49:38;99189.75;;;-5.19;87.02
75428;BME280;64008;55.612;37.698;2022-12-18T07:52:04;99194.69;;;-5.21;86.71
75428;BME280;64008;55.612;37.698;2022-12-18T07:54:29;99193.56;;;-5.25;85.69
75428;BME280;64008;55.612;37.698;2022-12-18T07:56:55;99198.22;;;-5.26;85.94
75428;BME280;64008;55.612;37.698;2022-12-18T07:59:20;99195.78;;;-5.22;86.96
75428;BME280;64008;55.612;37.698;2022-12-18T08:01:46;99202.09;;;-5.22;86.56
75428;BME280;64008;55.612;37.698;2022-12-18T08:04:11;99219.34;;;-5.21;86.56
75428;BME280;64008;55.612;37.698;2022-12-18T08:06:37;99216.88;;;-5.23;85.85
75428;BME280;64008;55.612;37.698;2022-12-18T08:09:02;99225.09;;;-5.23;85.82
75428;BME280;64008;55.612;37.698;2022-12-18T08:11:28;99218.53;;;-5.27;85.99
75428;BME280;64008;55.612;37.698;2022-12-18T08:13:54;99224.56;;;-5.15;87.32
75428;BME280;64008;55.612;37.698;2022-12-18T08:16:21;99244.28;;;-5.13;87.19
75428;BME280;64008;55.612;37.698;2022-12-18T08:18:47;99252.25;;;-5.11;87.04
75428;BME280;64008;55.612;37.698;2022-12-18T08:21:15;99257.72;;;-5.11;86.45
75428;BME280;64008;55.612;37.698;2022-12-18T08:23:41;99258.81;;;-5.12;87.26
75428;BME280;64008;55.612;37.698;2022-12-18T08:26:07;99254.97;;;-5.21;85.34
75428;BME280;64008;55.612;37.698;2022-12-18T08:28:33;99265.09;;;-5.22;86.32
75428;BME280;64008;55.612;37.698;2022-12-18T08:30:59;99267.28;;;-5.24;86.13
75428;BME280;64008;55.612;37.698;2022-12-18T08:33:25;99276.63;;;-5.20;86.82
75428;BME280;64008;55.612;37.698;2022-12-18T08:35:51;99265.38;;;-5.28;84.91
75428;BME280;64008;55.612;37.698;2022-12-18T08:38:17;99264.56;;;-5.29;85.83
75428;BME280;64008;55.612;37.698;2022-12-18T08:40:42;99280.16;;;-5.29;85.68
75428;BME280;64008;55.612;37.698;2022-12-18T08:43:10;99274.41;;;-5.23;87.06
75428;BME280;64008;55.612;37.698;2022-12-18T08:45:54;99285.66;;;-5.24;86.14
75428;BME280;64008;55.612;37.698;2022-12-18T08:48:20;99281.81;;;-5.28;86.19
75428;BME280;64008;55.612;37.698;2022-12-18T08:50:56;99285.38;;;-5.23;86.48
75428;BME280;64008;55.612;37.698;2022-12-18T08:53:22;99282.38;;;-5.21;86.22
75428;BME280;64008;55.612;37.698;2022-12-18T08:55:51;99281.28;;;-5.15;86.85
75428;BME280;64008;55.612;37.698;2022-12-18T08:58:17;99287.06;;;-5.12;86.60
75428;BME280;64008;55.612;37.698;2022-12-18T09:00:43;99274.72;;;-5.14;85.81
75428;BME280;64008;55.612;37.698;2022-12-18T09:03:16;99278.81;;;-5.12;85.33
75428;BME280;64008;55.612;37.698;2022-12-18T09:05:42;99274.97;;;-5.16;84.63
75428;BME280;64008;55.612;37.698;2022-12-18T09:08:09;99288.97;;;-5.12;85.50
75428;BME280;64008;55.612;37.698;2022-12-18T09:10:42;99299.09;;;-5.08;86.18
75428;BME280;64008;55.612;37.698;2022-12-18T09:13:09;99318.56;;;-4.99;87.40
75428;BME280;64008;55.612;37.698;2022-12-18T09:15:39;99320.75;;;-5.01;85.80
75428;BME280;64008;55.612;37.698;2022-12-18T09:18:05;99319.97;;;-4.96;86.63
75428;BME280;64008;55.612;37.698;2022-12-18T09:20:30;99329.25;;;-4.92;86.75
75428;BME280;64008;55.612;37.698;2022-12-18T09:22:56;99334.75;;;-4.92;85.84
75428;BME280;64008;55.612;37.698;2022-12-18T09:25:21;99329.53;;;-4.94;86.06
75428;BME280;64008;55.612;37.698;2022-12-18T09:27:47;99334.22;;;-4.84;85.99
75428;BME280;64008;55.612;37.698;2022-12-18T09:30:13;99328.44;;;-4.83;85.62
75428;BME280;64008;55.612;37.698;2022-12-18T09:32:38;99332.59;;;-4.80;85.53
75428;BME280;64008;55.612;37.698;2022-12-18T09:35:04;99330.66;;;-4.75;85.76
75428;BME280;64008;55.612;37.698;2022-12-18T09:37:30;99337.78;;;-4.74;86.08
75428;BME280;64008;55.612;37.698;2022-12-18T09:39:56;99340.53;;;-4.74;86.59
75428;BME280;64008;55.612;37.698;2022-12-18T09:42:22;99341.91;;;-4.66;86.87
75428;BME280;64008;55.612;37.698;2022-12-18T09:44:51;99346.25;;;-4.85;85.52
75428;BME280;64008;55.612;37.698;2022-12-18T09:47:22;99352.84;;;-4.91;85.95
75428;BME280;64008;55.612;37.698;2022-12-18T09:49:52;99359.44;;;-4.77;86.80
75428;BME280;64008;55.612;37.698;2022-12-18T09:52:33;99353.94;;;-4.77;85.04
75428;BME280;64008;55.612;37.698;2022-12-18T09:57:39;99354.22;;;-4.69;86.77
75428;BME280;64008;55.612;37.698;2022-12-18T10:00:15;99355.34;;;-4.65;85.68
75428;BME280;64008;55.612;37.698;2022-12-18T10:02:42;99352.59;;;-4.59;86.56
75428;BME280;64008;55.612;37.698;2022-12-18T10:05:13;99363.84;;;-4.56;86.02
75428;BME280;64008;55.612;37.698;2022-12-18T10:10:26;99379.47;;;-4.41;87.52
75428;BME280;64008;55.612;37.698;2022-12-18T10:13:31;99376.47;;;-4.40;87.04
75428;BME280;64008;55.612;37.698;2022-12-18T10:16:16;99380.03;;;-4.44;85.67
75428;BME280;64008;55.612;37.698;2022-12-18T10:19:11;99380.31;;;-4.41;87.00
75428;BME280;64008;55.612;37.698;2022-12-18T10:27:23;99371.25;;;-4.51;85.80
75428;BME280;64008;55.612;37.698;2022-12-18T10:29:53;99363.00;;;-4.46;86.31
75428;BME280;64008;55.612;37.698;2022-12-18T10:32:29;99367.41;;;-4.50;86.41
75428;BME280;64008;55.612;37.698;2022-12-18T10:34:57;99366.31;;;-4.39;87.31
75428;BME280;64008;55.612;37.698;2022-12-18T10:37:27;99377.00;;;-4.33;88.31
75428;BME280;64008;55.612;37.698;2022-12-18T10:40:12;99386.34;;;-4.34;87.33
75428;BME280;64008;55.612;37.698;2022-12-18T10:42:38;99388.81;;;-4.42;86.08
75428;BME280;64008;55.612;37.698;2022-12-18T10:45:12;99377.00;;;-4.43;86.40
75428;BME280;64008;55.612;37.698;2022-12-18T10:47:48;99397.28;;;-4.39;87.24
75428;BME280;64008;55.612;37.698;2022-12-18T10:50:28;99408.00;;;-4.37;87.82
75428;BME280;64008;55.612;37.698;2022-12-18T10:52:59;99413.78;;;-4.44;86.26
75428;BME280;64008;55.612;37.698;2022-12-18T10:55:37;99429.16;;;-4.48;87.21
75428;BME280;64008;55.612;37.698;2022-12-18T11:01:14;99443.69;;;-4.32;86.85
75428;BME280;64008;55.612;37.698;2022-12-18T11:03:59;99456.59;;;-4.28;86.47
75428;BME280;64008;55.612;37.698;2022-12-18T11:06:26;99456.03;;;-4.35;87.17
75428;BME280;64008;55.612;37.698;2022-12-18T11:09:01;99454.38;;;-4.31;86.85
75428;BME280;64008;55.612;37.698;2022-12-18T11:11:28;99449.16;;;-4.37;86.06
75428;BME280;64008;55.612;37.698;2022-12-18T11:13:58;99451.66;;;-4.41;86.70
75428;BME280;64008;55.612;37.698;2022-12-18T11:16:26;99452.19;;;-4.39;87.21
75428;BME280;64008;55.612;37.698;2022-12-18T11:18:53;99446.16;;;-4.41;86.03
75428;BME280;64008;55.612;37.698;2022-12-18T11:21:18;99441.50;;;-4.40;86.37
75428;BME280;64008;55.612;37.698;2022-12-18T11:23:53;99449.72;;;-4.45;86.41
75428;BME280;64008;55.612;37.698;2022-12-18T11:26:19;99449.19;;;-4.42;86.96
75428;BME280;64008;55.612;37.698;2022-12-18T11:28:50;99457.41;;;-4.42;87.77
75428;BME280;64008;55.612;37.698;2022-12-18T11:31:21;99459.59;;;-4.44;86.92
75428;BME280;64008;55.612;37.698;2022-12-18T11:37:05;99468.91;;;-4.45;87.76
75428;BME280;64008;55.612;37.698;2022-12-18T11:39:37;99472.50;;;-4.35;87.45
75428;BME280;64008;55.612;37.698;2022-12-18T11:42:45;99480.75;;;-4.35;87.39
75428;BME280;64008;55.612;37.698;2022-12-18T11:48:03;99489.78;;;-4.49;87.48
75428;BME280;64008;55.612;37.698;2022-12-18T11:53:13;99497.19;;;-4.45;87.52
75428;BME280;64008;55.612;37.698;2022-12-18T12:06:39;99533.38;;;-4.53;87.25
75428;BME280;64008;55.612;37.698;2022-12-18T12:12:00;99537.81;;;-4.42;88.98
75428;BME280;64008;55.612;37.698;2022-12-18T12:14:44;99552.63;;;-4.43;86.95
75428;BME280;64008;55.612;37.698;2022-12-18T12:17:29;99564.69;;;-4.49;85.81
75428;BME280;64008;55.612;37.698;2022-12-18T12:30:20;99559.97;;;-4.64;87.55
75428;BME280;64008;55.612;37.698;2022-12-18T12:33:14;99570.38;;;-4.60;87.66
75428;BME280;64008;55.612;37.698;2022-12-18T12:36:30;99577.28;;;-4.58;88.06
75428;BME280;64008;55.612;37.698;2022-12-18T12:38:55;99582.75;;;-4.58;88.33
75428;BME280;64008;55.612;37.698;2022-12-18T12:41:24;99604.19;;;-4.55;88.42
75428;BME280;64008;55.612;37.698;2022-12-18T12:44:16;99603.34;;;-4.55;87.62
75428;BME280;64008;55.612;37.698;2022-12-18T12:46:43;99598.91;;;-4.62;86.92
75428;BME280;64008;55.612;37.698;2022-12-18T12:49:17;99612.41;;;-4.55;87.05
75428;BME280;64008;55.612;37.698;2022-12-18T12:51:47;99613.19;;;-4.59;87.59
75428;BME280;64008;55.612;37.698;2022-12-18T12:54:19;99608.59;;;-4.49;87.36
75428;BME280;64008;55.612;37.698;2022-12-18T12:57:02;99617.28;;;-4.62;86.78
75428;BME280;64008;55.612;37.698;2022-12-18T13:05:24;99637.69;;;-4.38;87.80
75428;BME280;64008;55.612;37.698;2022-12-18T13:08:22;99637.78;;;-4.17;86.67
75428;BME280;64008;55.612;37.698;2022-12-18T13:10:48;99650.69;;;-4.18;84.64
75428;BME280;64008;55.612;37.698;2022-12-18T13:13:14;99649.59;;;-4.07;85.22
75428;BME280;64008;55.612;37.698;2022-12-18T13:15:42;99650.72;;;-4.08;84.89
75428;BME280;64008;55.612;37.698;2022-12-18T13:20:43;99650.94;;;-4.14;84.95
75428;BME280;64008;55.612;37.698;2022-12-18T13:23:38;99659.19;;;-4.14;84.49
75428;BME280;64008;55.612;37.698;2022-12-18T13:32:15;99683.97;;;-3.99;84.73
75428;BME280;64008;55.612;37.698;2022-12-18T13:34:20;99685.38;;;-4.54;86.99
75428;BME280;64008;55.612;37.698;2022-12-18T13:36:46;99693.09;;;-4.46;88.10
75428;BME280;64008;55.612;37.698;2022-12-18T13:41:45;99697.44;;;-3.93;85.14
75428;BME280;64008;55.612;37.698;2022-12-18T13:44:33;99703.50;;;-3.86;85.35
75428;BME280;64008;55.612;37.698;2022-12-18T13:47:01;99716.09;;;-3.90;84.11
75428;BME280;64008;55.612;37.698;2022-12-18T13:49:41;99726.00;;;-3.94;83.56
75428;BME280;64008;55.612;37.698;2022-12-18T13:52:21;99733.97;;;-3.87;84.09
75428;BME280;64008;55.612;37.698;2022-12-18T13:54:57;99722.47;;;-3.84;84.14
75428;BME280;64008;55.612;37.698;2022-12-18T13:57:31;99734.28;;;-3.83;83.93
75428;BME280;64008;55.612;37.698;2022-12-18T13:59:57;99745.34;;;-4.26;84.86
75428;BME280;64008;55.612;37.698;2022-12-18T14:02:25;99762.19;;;-4.54;86.14
75428;BME280;64008;55.612;37.698;2022-12-18T14:04:52;99764.34;;;-4.61;87.99
75428;BME280;64008;55.612;37.698;2022-12-18T14:07:21;99763.22;;;-4.65;87.10
75428;BME280;64008;55.612;37.698;2022-12-18T14:09:50;99756.38;;;-4.63;87.88
75428;BME280;64008;55.612;37.698;2022-12-18T14:12:35;99763.81;;;-4.58;87.74
75428;BME280;64008;55.612;37.698;2022-12-18T14:17:50;99775.13;;;-4.49;88.28
75428;BME280;64008;55.612;37.698;2022-12-18T14:20:17;99776.78;;;-4.48;87.27
75428;BME280;64008;55.612;37.698;2022-12-18T14:22:45;99784.16;;;-4.86;87.76
75428;BME280;64008;55.612;37.698;2022-12-18T14:25:23;99797.00;;;-4.59;88.38
75428;BME280;64008;55.612;37.698;2022-12-18T14:28:02;99792.94;;;-4.52;89.18
75428;BME280;64008;55.612;37.698;2022-12-18T14:30:31;99793.59;;;-4.40;88.20
75428;BME280;64008;55.612;37.698;2022-12-18T14:35:32;99811.53;;;-4.64;88.13
75428;BME280;64008;55.612;37.698;2022-12-18T14:41:19;99823.50;;;-4.70;87.11
75428;BME280;64008;55.612;37.698;2022-12-18T14:43:48;99829.88;;;-4.65;88.36